Airfield :
LOGIN :

Register | Disclaimer

   EN    FR    IT 

 










Legend :    VFR   Marginal VFR   IFR   Intensive IFR   Very Intensive IFR
Visi :
Ceiling :
>= 8 km
>= 3000ft
5 to 8 km
1000 to 3000 ft
1500m to 5 km
500 to 1000 ft
800 to 1500m
200 to 500 ft
< 800m
< 200 ft
Symbols :   Thunderstorms  Fog  Heavy snow  Heavy precipitations  Wind > 20 kt
SIGMETs :     Misc.  Thunderstorms  Icing  Turbulence  Mountain Waves  Volcanic Ashes







- Airport Elevation : 45 ft
- IATA code : CEG
- Download approach charts


EGNR - Hawarden Chester

CURRENT METAR :
  • 181450Z 24011KT 220V280 9999 SCT020 BKN035 19/13 Q1016

EXPIRED METARs :
  • 181420Z 25015KT 220V280 9999 SCT023 SCT038 19/13 Q1017
  • 181350Z 23018KT 9999 SCT028 SCT038 21/13 Q1017
  • 181320Z 25008KT 210V300 9999 FEW026 SCT035 20/13 Q1017
  • 181250Z 25012KT 220V290 9999 FEW025 SCT031 19/11 Q1017
  • 181220Z 24012KT 9999 FEW025 SCT036 19/10 Q1017

TAF TAF EGNR
Valid from the 18 at 15:00 until the 18 at 20:00 UTC


181356Z 1815/1820 25011KT 9999 SCT020
PROB30
TEMPO 1816/1820 26016G26KT BKN012
No reported NOTAMs for that airfield.
1 SIGMET reported for the London FIR (EGTT) :
 
Severe mountain waves
EGTT SIGMET 02 VALID 181400/181800 EGRR
EGTT LONDON FIR SEV MTW FCST WI N5500 E00014 - N5327 E00025 - N5320 W00228 - N5441 W00418 - N5500 W00437 - N5500 E00014 FL040/240 STNR NC=



MET'MAP, your aeronautical weather chart ! - Copyright ORBIFLY December 2007 - Disclaimer

ORBIFLY MET'MAP TEAM :

Programming & Development : Alexandra Zaïnal
Concept & Development : Baudouin d'Aumeries
Co-Development & Prog : Marc-Olivier Méhu
Technical & hardware support : Manuel Goepfert

Contact : metmap@orbifly.com




SOURCES & CREDITS :

   NOAA